LATI/TIA METAR and TAF weather

Enter ICAO airport designator
Station Type Date Time Source
LATI METAR 2020/08/14 16:50 UTC NOAA

LATI 141650Z 34004KT CAVOK 28/20 Q1010 NOSIG


Station Type Date Time Source
LATI Decoded METAR 2020/08/14 16:50 UTC NOAA

Tirana, Albania (LATI) 41-20N 019-47E 90M
Aug 14, 2020 - 12:50 PM EDT / 2020.08.14 1650 UTC
Wind: from the NNW (340 degrees) at 5 MPH (4 KT):0
Visibility: greater than 7 mile(s):0
Temperature: 82 F (28 C)
Dew Point: 68 F (20 C)
Relative Humidity: 61%
Pressure (altimeter): 29.83 in. Hg (1010 hPa)
ob: LATI 141650Z 34004KT CAVOK 28/20 Q1010 NOSIG
cycle: 17

Station Type Date Time Source
LATI TAF 2020/08/14 12:21 UTC NOAA

TAF TAF LATI 141100Z 1412/1512 32012KT CAVOK TX35/1412Z TN21/1504Z
BECMG 1417/1419 VRB03KT
BECMG 1509/1511 25012KT SCT070

Example: see airport list